createdAt,value
2019-04-05T00:00:26.388Z,30.75
2019-04-05T00:02:55.991Z,36.33
2019-04-05T00:05:25.658Z,34.43
2019-04-05T00:07:55.274Z,37.05
2019-04-05T00:10:25.391Z,40.28
2019-04-05T00:12:54.992Z,34.40
2019-04-05T00:15:24.655Z,34.18
2019-04-05T00:17:54.282Z,37.63
2019-04-05T00:20:23.919Z,39.85
2019-04-05T00:22:53.529Z,42.30
2019-04-05T00:25:23.748Z,44.53
2019-04-05T00:27:53.627Z,39.95
2019-04-05T00:30:23.379Z,42.58
2019-04-05T00:32:53.301Z,44.67
2019-04-05T00:35:22.946Z,46.15
2019-04-05T00:37:53.530Z,43.87
2019-04-05T00:40:23.489Z,45.60
2019-04-05T00:42:53.084Z,45.52
2019-04-05T00:45:28.383Z,45.33
2019-04-05T00:47:54.031Z,46.95
2019-04-05T00:50:23.727Z,43.20
2019-04-05T00:52:53.830Z,41.40
2019-04-05T00:55:23.463Z,43.38
2019-04-05T00:57:55.561Z,47.27
2019-04-05T01:00:25.237Z,43.87
2019-04-05T01:02:54.932Z,43.63
2019-04-05T01:05:24.859Z,42.20
2019-04-05T01:07:54.802Z,45.20
2019-04-05T01:10:24.772Z,52.98
2019-04-05T01:12:54.481Z,42.85
2019-04-05T01:15:24.152Z,54.10
2019-04-05T01:17:54.585Z,43.20
2019-04-05T01:20:25.782Z,50.55
2019-04-05T01:22:55.811Z,47.05
2019-04-05T01:25:26.436Z,42.55
2019-04-05T01:27:56.206Z,46.63
2019-04-05T01:30:26.087Z,48.65
2019-04-05T01:32:56.219Z,45.40
2019-04-05T01:35:26.144Z,43.40
2019-04-05T01:37:57.741Z,49.70
2019-04-05T01:40:29.806Z,42.23
2019-04-05T01:42:59.645Z,41.95
2019-04-05T01:45:29.281Z,37.48
2019-04-05T01:47:59.026Z,39.50
2019-04-05T01:50:29.158Z,35.80
2019-04-05T01:52:59.282Z,34.85
2019-04-05T01:55:29.241Z,32.90
2019-04-05T01:57:59.182Z,30.35
2019-04-05T02:00:28.828Z,30.45
2019-04-05T02:02:58.835Z,31.07
2019-04-05T02:05:28.505Z,29.70
2019-04-05T02:07:58.409Z,29.95
2019-04-05T02:10:28.289Z,32.08
2019-04-05T02:12:57.899Z,30.70
2019-04-05T02:15:29.182Z,27.85
2019-04-05T02:17:59.046Z,27.35
2019-04-05T02:20:28.685Z,27.60
2019-04-05T02:22:58.428Z,27.60
2019-04-05T02:25:28.145Z,28.10
2019-04-05T02:27:58.252Z,27.50
2019-04-05T02:30:28.434Z,27.87
2019-04-05T02:32:58.135Z,28.60
2019-04-05T02:35:27.891Z,32.83
2019-04-05T02:37:57.602Z,32.30
2019-04-05T02:40:28.649Z,27.25
2019-04-05T02:43:00.101Z,28.12
2019-04-05T02:45:32.906Z,27.65
2019-04-05T02:48:06.104Z,26.75
2019-04-05T02:50:38.706Z,30.08
2019-04-05T02:53:11.520Z,26.93
2019-04-05T02:55:43.246Z,30.50
2019-04-05T02:58:14.198Z,30.25
2019-04-05T03:00:44.559Z,29.37
2019-04-05T03:03:14.842Z,28.73
2019-04-05T03:05:46.396Z,28.50
2019-04-05T03:08:17.392Z,27.10
2019-04-05T03:11:01.808Z,30.97
2019-04-05T03:13:34.384Z,28.85
2019-04-05T03:16:07.040Z,29.37
2019-04-05T03:18:39.349Z,32.23
2019-04-05T03:21:10.277Z,33.13
2019-04-05T03:23:43.061Z,36.88
2019-04-05T03:26:16.167Z,30.05
2019-04-05T03:28:48.778Z,30.50
2019-04-05T03:31:24.271Z,32.55
2019-04-05T03:33:50.460Z,28.10
2019-04-05T03:36:20.436Z,33.15
2019-04-05T03:38:50.251Z,31.55
2019-04-05T03:41:20.113Z,34.95
2019-04-05T03:43:51.012Z,34.80
2019-04-05T03:46:20.862Z,35.40
2019-04-05T03:48:50.711Z,36.70
2019-04-05T03:51:20.780Z,40.48
2019-04-05T03:53:50.521Z,38.80
2019-04-05T03:56:20.368Z,40.52
2019-04-05T03:58:49.957Z,39.20
2019-04-05T04:01:20.163Z,40.90
2019-04-05T04:03:50.052Z,35.90
2019-04-05T04:06:19.817Z,37.13
2019-04-05T04:08:49.994Z,39.53
2019-04-05T04:11:20.247Z,38.25
2019-04-05T04:13:50.099Z,36.17
2019-04-05T04:16:20.218Z,37.60
2019-04-05T04:18:50.201Z,38.83
2019-04-05T04:21:34.924Z,38.00
2019-04-05T04:24:04.994Z,36.75
2019-04-05T04:26:35.061Z,40.12
2019-04-05T04:29:04.814Z,37.05
2019-04-05T04:31:34.878Z,38.48
2019-04-05T04:34:04.567Z,39.73
2019-04-05T04:36:34.640Z,37.40
2019-04-05T04:39:05.762Z,39.70
2019-04-05T04:41:35.604Z,39.53
2019-04-05T04:44:05.311Z,40.35
2019-04-05T04:46:35.060Z,34.30
2019-04-05T04:49:05.169Z,38.63
2019-04-05T04:51:35.299Z,39.45
2019-04-05T04:54:05.160Z,39.58
2019-04-05T04:56:34.793Z,36.03
2019-04-05T04:59:04.821Z,38.30
2019-04-05T05:01:34.751Z,39.03
2019-04-05T05:04:04.650Z,40.33
2019-04-05T05:06:34.319Z,38.63
2019-04-05T05:09:07.727Z,31.23
2019-04-05T05:11:38.087Z,36.13
2019-04-05T05:14:07.775Z,39.10
2019-04-05T05:16:37.386Z,37.88
2019-04-05T05:19:07.198Z,34.67
2019-04-05T05:21:36.869Z,41.53
2019-04-05T05:24:06.638Z,38.13
2019-04-05T05:26:36.448Z,37.28
2019-04-05T05:29:06.012Z,42.05
2019-04-05T05:31:35.699Z,37.83
2019-04-05T05:34:05.863Z,32.70
2019-04-05T05:36:36.196Z,37.00
2019-04-05T05:39:08.104Z,39.58
2019-04-05T05:41:37.644Z,38.28
2019-04-05T05:44:07.430Z,35.92
2019-04-05T05:46:37.015Z,35.80
2019-04-05T05:49:06.579Z,34.60
2019-04-05T05:51:36.316Z,34.40
2019-04-05T05:54:06.119Z,37.10
2019-04-05T05:56:35.688Z,32.88
2019-04-05T05:59:05.391Z,33.08
2019-04-05T06:01:35.219Z,38.10
2019-04-05T06:04:05.085Z,37.50
2019-04-05T06:06:34.719Z,38.45
2019-04-05T06:09:06.195Z,38.70
2019-04-05T06:11:35.768Z,35.35
2019-04-05T06:14:05.869Z,35.05
2019-04-05T06:16:45.825Z,39.27
2019-04-05T06:19:06.674Z,32.85
2019-04-05T06:21:36.256Z,38.65
2019-04-05T06:24:05.867Z,35.90
2019-04-05T06:26:36.271Z,33.23
2019-04-05T06:29:06.017Z,34.38
2019-04-05T06:31:35.573Z,41.48
2019-04-05T06:34:05.302Z,41.15
2019-04-05T06:36:34.830Z,36.70
2019-04-05T06:39:06.522Z,36.88
2019-04-05T06:41:36.348Z,37.73
2019-04-05T06:44:06.096Z,38.85
2019-04-05T06:46:35.640Z,38.98
2019-04-05T06:49:05.610Z,36.55
2019-04-05T06:51:35.164Z,33.78
2019-04-05T06:54:04.734Z,37.25
2019-04-05T06:56:34.313Z,33.60
2019-04-05T06:59:04.113Z,40.03
2019-04-05T07:01:33.665Z,36.45
2019-04-05T07:04:03.232Z,35.60
2019-04-05T07:06:32.840Z,34.60
2019-04-05T07:09:02.421Z,33.67
2019-04-05T07:11:32.050Z,37.20
2019-04-05T07:14:01.636Z,33.13
2019-04-05T07:16:31.261Z,33.92
2019-04-05T07:19:00.814Z,30.57
2019-04-05T07:21:30.415Z,35.23
2019-04-05T07:24:00.045Z,32.38
2019-04-05T07:26:29.884Z,37.63
2019-04-05T07:28:59.518Z,33.02
2019-04-05T07:31:29.095Z,36.38
2019-04-05T07:33:59.183Z,34.85
2019-04-05T07:36:28.829Z,32.63
2019-04-05T07:38:58.397Z,29.63
2019-04-05T07:41:28.162Z,27.22
2019-04-05T07:43:57.777Z,29.37
2019-04-05T07:46:27.872Z,29.07
2019-04-05T07:48:57.539Z,26.95
2019-04-05T07:51:27.371Z,29.57
2019-04-05T07:53:56.904Z,28.12
2019-04-05T07:56:26.723Z,24.18
2019-04-05T07:58:56.341Z,27.80
2019-04-05T08:01:26.171Z,21.40
2019-04-05T08:03:57.944Z,25.20
2019-04-05T08:06:28.200Z,25.90
2019-04-05T08:09:07.415Z,23.73
2019-04-05T08:11:38.214Z,25.77
2019-04-05T08:14:08.658Z,23.70
2019-04-05T08:16:38.251Z,24.90
2019-04-05T08:19:07.861Z,21.50
2019-04-05T08:21:38.306Z,27.15
2019-04-05T08:24:08.143Z,22.65
2019-04-05T08:26:37.969Z,21.85
2019-04-05T08:29:07.552Z,24.27
2019-04-05T08:31:37.124Z,28.05
2019-04-05T08:34:06.661Z,24.18
2019-04-05T08:36:36.246Z,19.85
2019-04-05T08:39:08.110Z,22.80
2019-04-05T08:41:37.949Z,22.40
2019-04-05T08:44:07.781Z,24.72
2019-04-05T08:46:37.409Z,25.25
2019-04-05T08:49:10.894Z,20.65
2019-04-05T08:51:39.439Z,21.07
2019-04-05T08:54:09.144Z,20.40
2019-04-05T08:56:38.738Z,19.23
2019-04-05T08:59:08.713Z,20.95
2019-04-05T09:01:38.372Z,18.27
2019-04-05T09:04:07.942Z,22.17
2019-04-05T09:06:37.587Z,21.68
2019-04-05T09:09:08.796Z,19.85
2019-04-05T09:11:38.363Z,21.97
2019-04-05T09:14:07.960Z,19.65
2019-04-05T09:16:37.842Z,20.88
2019-04-05T09:19:07.447Z,19.00
2019-04-05T09:21:40.513Z,22.37
2019-04-05T09:24:09.622Z,21.42
2019-04-05T09:26:39.448Z,20.72
2019-04-05T09:29:09.482Z,20.35
2019-04-05T09:31:39.144Z,21.45
2019-04-05T09:34:09.293Z,19.05
2019-04-05T09:36:38.898Z,18.77
2019-04-05T09:39:15.351Z,21.15
2019-04-05T09:41:42.372Z,21.25
2019-04-05T09:44:12.179Z,18.95
2019-04-05T09:46:47.914Z,19.67
2019-04-05T09:49:13.247Z,18.70
2019-04-05T09:51:43.039Z,19.80
2019-04-05T09:54:12.639Z,19.55
2019-04-05T09:56:42.222Z,24.43
2019-04-05T09:59:11.776Z,19.20
2019-04-05T10:01:41.430Z,18.82
2019-04-05T10:04:10.967Z,21.85
2019-04-05T10:06:40.648Z,20.02
2019-04-05T10:09:10.253Z,23.00
2019-04-05T10:11:39.861Z,17.73
2019-04-05T10:14:09.479Z,20.88
2019-04-05T10:16:39.323Z,22.02
2019-04-05T10:19:09.199Z,19.00
2019-04-05T10:21:38.833Z,20.48
2019-04-05T10:24:08.444Z,18.40
2019-04-05T10:26:38.011Z,19.27
2019-04-05T10:29:07.657Z,22.25
2019-04-05T10:31:37.225Z,20.55
2019-04-05T10:34:06.819Z,23.30
2019-04-05T10:36:36.409Z,21.55
2019-04-05T10:39:08.620Z,18.30
2019-04-05T10:41:38.194Z,23.55
2019-04-05T10:44:09.685Z,24.85
2019-04-05T10:46:39.305Z,23.30
2019-04-05T10:49:09.169Z,20.65
2019-04-05T10:51:38.827Z,22.87
2019-04-05T10:54:09.526Z,22.55
2019-04-05T10:56:39.280Z,23.98
2019-04-05T10:59:08.887Z,21.12
2019-04-05T11:01:38.511Z,26.55
2019-04-05T11:04:08.089Z,27.42
2019-04-05T11:06:37.730Z,21.45
2019-04-05T11:09:08.964Z,22.87
2019-04-05T11:11:38.799Z,22.35
2019-04-05T11:14:13.999Z,20.00
2019-04-05T11:16:39.623Z,25.65
2019-04-05T11:19:09.216Z,26.17
2019-04-05T11:21:39.072Z,20.68
2019-04-05T11:24:08.637Z,24.90
2019-04-05T11:26:38.503Z,24.85
2019-04-05T11:29:08.092Z,22.77
2019-04-05T11:31:37.652Z,22.65
2019-04-05T11:34:07.599Z,22.15
2019-04-05T11:36:38.122Z,21.87
2019-04-05T11:39:08.611Z,23.87
2019-04-05T11:41:40.088Z,27.52
2019-04-05T11:44:09.921Z,25.92
2019-04-05T11:46:40.358Z,25.43
2019-04-05T11:49:09.951Z,23.62
2019-04-05T11:51:39.567Z,21.27
2019-04-05T11:54:09.148Z,25.50
2019-04-05T11:56:38.723Z,23.80
2019-04-05T11:59:13.386Z,22.85
2019-04-05T12:01:53.989Z,25.23
2019-04-05T12:04:23.611Z,28.98
2019-04-05T12:06:53.160Z,22.25
2019-04-05T12:09:22.742Z,24.10
2019-04-05T12:11:52.306Z,25.02
2019-04-05T12:14:30.168Z,24.30
2019-04-05T12:16:53.901Z,28.15
2019-04-05T12:19:23.492Z,33.70
2019-04-05T12:21:53.320Z,28.92
2019-04-05T12:24:23.015Z,23.50
2019-04-05T12:26:52.820Z,26.27
2019-04-05T12:29:22.422Z,22.95
2019-04-05T12:31:53.487Z,28.05
2019-04-05T12:34:23.308Z,29.20
2019-04-05T12:36:53.279Z,26.55
2019-04-05T12:39:22.903Z,30.45
2019-04-05T12:41:52.785Z,31.57
2019-04-05T12:44:22.514Z,31.12
2019-04-05T12:46:52.076Z,33.65
2019-04-05T12:49:21.722Z,28.23
2019-04-05T12:51:51.244Z,27.45
2019-04-05T12:54:20.821Z,31.10
2019-04-05T12:56:50.421Z,27.25
2019-04-05T12:59:19.968Z,26.23
2019-04-05T13:01:49.842Z,28.85
2019-04-05T13:04:20.636Z,27.35
2019-04-05T13:06:53.003Z,29.35
2019-04-05T13:09:23.654Z,34.23
2019-04-05T13:11:56.330Z,32.42
2019-04-05T13:14:26.497Z,28.10
2019-04-05T13:16:56.177Z,32.55
2019-04-05T13:19:25.734Z,28.98
2019-04-05T13:21:55.654Z,30.75
2019-04-05T13:24:25.303Z,34.98
2019-04-05T13:26:54.874Z,28.87
2019-04-05T13:29:24.450Z,31.95
2019-04-05T13:31:54.001Z,31.70
2019-04-05T13:34:26.032Z,29.10
2019-04-05T13:36:55.089Z,34.18
2019-04-05T13:39:24.672Z,29.12
2019-04-05T13:41:54.247Z,27.90
2019-04-05T13:44:24.086Z,31.42
2019-04-05T13:46:53.925Z,29.55
2019-04-05T13:49:23.763Z,26.75
2019-04-05T13:51:53.379Z,36.08
2019-04-05T13:54:23.239Z,37.98
2019-04-05T13:56:52.824Z,35.55
2019-04-05T13:59:22.675Z,29.75
2019-04-05T14:01:52.294Z,34.35
2019-04-05T14:04:22.023Z,33.48
2019-04-05T14:06:53.720Z,29.27
2019-04-05T14:09:23.726Z,33.83
2019-04-05T14:11:53.250Z,35.03
2019-04-05T14:14:23.563Z,27.02
2019-04-05T14:16:54.130Z,23.90
2019-04-05T14:19:24.124Z,30.68
2019-04-05T14:21:53.840Z,26.20
2019-04-05T14:24:23.910Z,28.32
2019-04-05T14:26:53.619Z,29.67
2019-04-05T14:29:23.466Z,34.27
2019-04-05T14:31:53.090Z,31.85
2019-04-05T14:34:23.722Z,37.30
2019-04-05T14:36:54.043Z,32.30
2019-04-05T14:39:23.611Z,36.08
2019-04-05T14:41:53.389Z,31.77
2019-04-05T14:44:23.010Z,33.80
2019-04-05T14:46:52.651Z,27.17
2019-04-05T14:49:22.535Z,32.85
2019-04-05T14:51:54.892Z,34.53
2019-04-05T14:54:23.351Z,27.67
2019-04-05T14:56:52.933Z,29.12
2019-04-05T14:59:22.531Z,28.87
2019-04-05T15:01:52.108Z,31.55
2019-04-05T15:04:21.653Z,37.67
2019-04-05T15:06:51.451Z,28.38
2019-04-05T15:09:24.804Z,30.55
2019-04-05T15:11:52.271Z,28.95
2019-04-05T15:14:22.154Z,28.47
2019-04-05T15:16:51.849Z,36.98
2019-04-05T15:19:21.979Z,28.17
2019-04-05T15:21:52.077Z,26.52
2019-04-05T15:24:21.667Z,26.82
2019-04-05T15:26:51.503Z,33.78
2019-04-05T15:29:23.647Z,24.32
2019-04-05T15:31:53.417Z,30.82
2019-04-05T15:34:28.001Z,32.17
2019-04-05T15:36:55.960Z,30.12
2019-04-05T15:39:25.567Z,27.13
2019-04-05T15:41:55.175Z,25.37
2019-04-05T15:44:24.738Z,31.62
2019-04-05T15:46:54.337Z,28.38
2019-04-05T15:49:23.880Z,30.35
2019-04-05T15:51:55.147Z,32.08
2019-04-05T15:54:24.731Z,29.30
2019-04-05T15:56:54.561Z,32.80
2019-04-05T15:59:24.192Z,34.20
2019-04-05T16:01:54.049Z,34.25
2019-04-05T16:04:24.324Z,38.58
2019-04-05T16:06:53.967Z,31.52
2019-04-05T16:09:24.112Z,36.08
2019-04-05T16:11:54.983Z,33.80
2019-04-05T16:14:24.499Z,35.10
2019-04-05T16:16:54.236Z,31.25
2019-04-05T16:19:26.603Z,29.02
2019-04-05T16:21:56.260Z,29.60
2019-04-05T16:24:26.088Z,31.42
2019-04-05T16:26:55.726Z,32.30
2019-04-05T16:29:25.293Z,30.68
2019-04-05T16:31:54.992Z,31.97
2019-04-05T16:34:24.712Z,28.30
2019-04-05T16:36:54.228Z,29.70
2019-04-05T16:39:23.863Z,29.20
2019-04-05T16:41:53.689Z,32.78
2019-04-05T16:44:23.237Z,30.08
2019-04-05T16:46:55.777Z,30.25
2019-04-05T16:49:26.091Z,30.72
2019-04-05T16:51:55.752Z,28.55
2019-04-05T16:54:25.340Z,29.77
2019-04-05T16:56:55.293Z,37.85
2019-04-05T16:59:24.847Z,40.10
2019-04-05T17:01:56.679Z,41.10
2019-04-05T17:04:25.637Z,36.13
2019-04-05T17:06:55.254Z,39.67
2019-04-05T17:09:25.256Z,38.83
2019-04-05T17:11:54.881Z,40.83
2019-04-05T17:14:24.706Z,35.03
2019-04-05T17:16:55.062Z,38.80
2019-04-05T17:19:25.391Z,40.05
2019-04-05T17:21:55.176Z,36.93
2019-04-05T17:24:25.096Z,42.15
2019-04-05T17:26:54.659Z,38.67
2019-04-05T17:29:24.242Z,44.88
2019-04-05T17:31:53.867Z,35.68
2019-04-05T17:34:23.380Z,34.85
2019-04-05T17:36:53.044Z,39.00
2019-04-05T17:39:22.669Z,39.03
2019-04-05T17:41:52.300Z,45.43
2019-04-05T17:44:21.901Z,44.58
2019-04-05T17:46:51.824Z,48.20
2019-04-05T17:49:21.437Z,42.73
2019-04-05T17:51:51.004Z,40.98
2019-04-05T17:54:20.598Z,46.20
2019-04-05T17:56:50.270Z,49.13
2019-04-05T17:59:20.204Z,47.67
2019-04-05T18:01:49.791Z,44.70
2019-04-05T18:04:19.667Z,50.00
2019-04-05T18:06:49.498Z,44.13
2019-04-05T18:09:19.097Z,50.45
2019-04-05T18:11:48.997Z,43.85
2019-04-05T18:14:18.712Z,47.23
2019-04-05T18:16:48.627Z,47.62
2019-04-05T18:19:18.212Z,41.08
2019-04-05T18:21:48.076Z,47.78
2019-04-05T18:24:17.892Z,42.78
2019-04-05T18:26:47.484Z,52.55
2019-04-05T18:29:17.071Z,50.33
2019-04-05T18:31:46.983Z,42.10
2019-04-05T18:34:16.535Z,48.58
2019-04-05T18:36:46.694Z,45.17
2019-04-05T18:39:16.245Z,53.17
2019-04-05T18:41:45.861Z,49.13
2019-04-05T18:44:15.423Z,53.58
2019-04-05T18:46:45.020Z,47.95
2019-04-05T18:49:14.836Z,53.90
2019-04-05T18:51:44.656Z,55.28
2019-04-05T18:54:14.228Z,50.35
2019-04-05T18:56:43.822Z,58.58
2019-04-05T18:59:13.703Z,58.83
2019-04-05T19:01:43.359Z,60.55
2019-04-05T19:04:13.264Z,54.08
2019-04-05T19:06:43.108Z,52.05
2019-04-05T19:09:12.746Z,59.93
2019-04-05T19:11:42.341Z,57.00
2019-04-05T19:14:12.223Z,62.98
2019-04-05T19:16:41.792Z,63.92
2019-04-05T19:19:11.360Z,66.57
2019-04-05T19:21:40.967Z,64.35
2019-04-05T19:24:10.551Z,58.55
2019-04-05T19:26:40.380Z,51.25
2019-04-05T19:29:10.006Z,54.67
2019-04-05T19:49:19.278Z,63.17
2019-04-05T19:51:49.094Z,60.00
2019-04-05T19:54:18.688Z,60.00
2019-04-05T19:56:48.283Z,62.98
2019-04-05T19:59:17.856Z,64.42
2019-04-05T20:01:47.966Z,57.08
2019-04-05T20:04:17.687Z,55.23
2019-04-05T20:06:47.308Z,55.28
2019-04-05T20:09:17.840Z,53.68
2019-04-05T20:11:47.432Z,58.68
2019-04-05T20:14:17.030Z,63.40
2019-04-05T20:16:46.671Z,63.85
2019-04-05T20:19:16.277Z,53.08
2019-04-05T20:21:46.188Z,55.25
2019-04-05T20:24:15.796Z,58.58
2019-04-05T20:26:45.916Z,54.13
2019-04-05T20:29:16.110Z,52.10
2019-04-05T20:31:45.671Z,63.45
2019-04-05T20:34:15.250Z,58.65
2019-04-05T20:36:44.821Z,61.42
2019-04-05T20:39:14.393Z,65.52
2019-04-05T20:41:44.113Z,56.88
2019-04-05T20:44:13.687Z,65.50
2019-04-05T20:46:43.280Z,59.75
2019-04-05T20:49:13.179Z,56.60
2019-04-05T20:51:42.776Z,71.47
2019-04-05T20:54:12.349Z,65.80
2019-04-05T20:56:42.001Z,65.35
2019-04-05T20:59:11.581Z,66.82
2019-04-05T21:01:41.191Z,64.27
2019-04-05T21:04:10.755Z,69.72
2019-04-05T21:06:40.730Z,61.60
2019-04-05T21:09:11.118Z,66.33
2019-04-05T21:11:40.820Z,57.62
2019-04-05T21:14:10.399Z,58.60
2019-04-05T21:16:40.017Z,56.70
2019-04-05T21:19:09.600Z,57.23
2019-04-05T21:21:39.283Z,64.85
2019-04-05T21:24:08.993Z,66.00
2019-04-05T21:26:38.562Z,57.62
2019-04-05T21:29:08.210Z,65.10
2019-04-05T21:31:38.103Z,65.90
2019-04-05T21:34:07.928Z,64.27
2019-04-05T21:36:37.650Z,56.63
2019-04-05T21:39:08.408Z,58.95
2019-04-05T21:41:38.468Z,55.63
2019-04-05T21:44:08.101Z,52.08
2019-04-05T21:46:37.784Z,68.37
2019-04-05T21:49:07.494Z,52.17
2019-04-05T21:51:37.164Z,62.17
2019-04-05T21:54:06.784Z,63.78
2019-04-05T21:56:36.621Z,55.05
2019-04-05T21:59:06.235Z,64.58
2019-04-05T22:01:35.864Z,61.98
2019-04-05T22:04:05.523Z,55.17
2019-04-05T22:06:35.132Z,63.13
2019-04-05T22:09:07.786Z,63.95
2019-04-05T22:11:37.450Z,61.65
2019-04-05T22:14:07.072Z,66.65
2019-04-05T22:16:36.704Z,65.65
2019-04-05T22:19:06.307Z,69.50
2019-04-05T22:21:36.232Z,65.95
2019-04-05T22:24:06.349Z,64.03
2019-04-05T22:26:36.355Z,54.90
2019-04-05T22:29:06.211Z,57.93
2019-04-05T22:31:35.863Z,59.67
2019-04-05T22:34:05.544Z,55.88
2019-04-05T22:36:35.444Z,58.58
2019-04-05T22:39:06.119Z,56.23
2019-04-05T22:41:35.794Z,68.60
2019-04-05T22:44:05.440Z,57.83
2019-04-05T22:46:35.049Z,60.33
2019-04-05T22:49:04.692Z,56.50
2019-04-05T22:51:34.283Z,59.63
2019-04-05T22:54:04.232Z,61.25
2019-04-05T22:56:33.847Z,58.63
2019-04-05T22:59:03.493Z,68.80
2019-04-05T23:01:33.190Z,56.80
2019-04-05T23:04:02.819Z,52.23
2019-04-05T23:06:32.429Z,55.80
2019-04-05T23:09:02.367Z,62.15
2019-04-05T23:11:32.523Z,55.70
2019-04-05T23:14:02.148Z,52.73
2019-04-05T23:16:31.795Z,62.55
2019-04-05T23:19:01.645Z,53.98
2019-04-05T23:21:31.316Z,57.38
2019-04-05T23:24:00.919Z,52.60
2019-04-05T23:26:30.595Z,57.93
2019-04-05T23:29:00.223Z,55.78
2019-04-05T23:31:29.852Z,54.45
2019-04-05T23:33:59.480Z,54.80
2019-04-05T23:36:29.123Z,55.12
2019-04-05T23:38:58.810Z,56.88
2019-04-05T23:41:29.367Z,62.00
2019-04-05T23:43:58.999Z,56.15
2019-04-05T23:46:28.615Z,54.70
2019-04-05T23:48:58.244Z,58.17
2019-04-05T23:51:28.100Z,64.22
2019-04-05T23:53:57.779Z,59.23
2019-04-05T23:56:27.432Z,54.25
2019-04-05T23:58:57.327Z,52.43
